Gove, KS (67736)

07:37 PM CDT die 25o July, anno 2016 (GMT -0500)
South Gove | | Change Station

Elev 2638 ft 38.81 °N, 100.46 °W | Updated 10 seconds ago

Clear
Serena
84.7 °F
Feels Like 86 °F
N
12.6
Ventus Variabilis Ventus from Inter Austrum et Eurum
Gusts 12.6 mph

Hodie
High -- | Low -- °F
--% Chance of Precip.
Yesterday
High -- | Low -- °F
Precip. -- in
Pressio 30.09 in
Visibilitas 10.0 milia passuum
Clouds Serena
Index Caloris 86 °F
Frigus in quo Ros apparet 64 °F
Umor 50%
Rainfall 0.46 in
Snow Depth Not available.
6:37 AM 8:59 PM
Waning Gibbous, 61% visible
METAR KCBK 260015Z AUTO 15012KT 10SM CLR 30/18 A3009 RMK AO2
Pressio 30.09 in
Visibilitas 10.0 milia passuum
Clouds Serena
Index Caloris 86 °F
Frigus in quo Ros apparet 64 °F
Umor 50%
Rainfall 0.46 in
Snow Depth Not available.
6:37 AM 8:59 PM
Waning Gibbous, 61% visible
METAR KCBK 260015Z AUTO 15012KT 10SM CLR 30/18 A3009 RMK AO2

10-Day Weather Forecast

Almanac

Astronomy

Jul. 25, 2016 Rise Set
Actual Time
Civil Twilight
Nautical Twilight
Astronomical Twilight
Moon
Length Of Visible Light
Length of Day
Tomorrow will be .
, % of the Moon is Illuminated

Today's Extremes

State Highs State Lows

Community

WunderPhotos

Upload Photos

1,927,479 photos uploaded!

WunderBlog® & News

Nearby

Air Quality

  Air Quality AQ Index Pollutant
Not available.

Snow Depth

Station Depth Elevation

Earthquake Activity

City Distance Mag. Time & Date
Minimum magnitude displayed is 2.5.

Coastal Water Temperatures

Locus Calor

Stations

Nearby Weather Stations

Station Location Temp Frigus Venti Frigus in quo Ros apparet Umor Ventus Precip. Elev Renovata Type
                   

Watches & Warnings

There are currently no watches in effect.